Goddard, KS (67052)

05:27 CDT le 30 août 2014 (GMT -0500)
Goddard South | Change Station
CLOSE
Current Station
Stations météorologiques personnelles
Location: Goddard, KS
Altitude: 1444 ft
Stations météo à proximité

Alt. 1444 ft 37.64 °N, 97.59 °W | Updated 5 minutes ago

Ciel dégagé
Ciel dégagé
67.2 ° F
Paraît 67.2 ° F
N
0.0
Vent Variable Vent de OSO
Gusts 0.0 mph

Aujourd'hui
Haut(e) -- | Bas -- ° F
--% Risque de précip.
Hier
Haut(e) -- | Bas -- ° F
Precip. -- pouce
6:58 AM 8:02 PM
Lune montante, 21% visible
Pression 29.88 pouce
Visibilité 7.0 Miles terrestres
Nuages Ciel dégagé
Point de rosée 66 ° F
Humidité 96%
Précipitations 0.00 pouce
Profondeur de la couche neigeuse Non disponible.
UV 0 sur 12
Pollen 9.20 sur 12
Qualité de l'air Non disponible.
Flu Activity Non disponible.
METAR KICT 300953Z 00000KT 7SM CLR 19/18 A2992 RMK AO2 SLP118 T01940183 $

More Conditions Fewer Conditions

Pression 29.88 pouce
Visibilité 7.0 Miles terrestres
Nuages Ciel dégagé
Point de rosée 66 ° F
Humidité 96%
Précipitations 0.00 pouce
Profondeur de la couche neigeuse Non disponible.
UV 0 sur 12
Pollen 9.20 sur 12
Qualité de l'air Non disponible.
Flu Activity Non disponible.
METAR KICT 300953Z 00000KT 7SM CLR 19/18 A2992 RMK AO2 SLP118 T01940183 $

More Conditions Fewer Conditions

10-Day Weather Forecast

Almanac

Astronomie

Aug. 30, 2014 Lever Coucher
Temps réel 06:58 CDT 20:02 CDT
Crépuscule civil 06:31 CDT 20:29 CDT
Crépuscule nautique 05:59 CDT 21:01 CDT
Crépuscule astronomique 05:26 CDT 21:34 CDT
Lune 11:41 CDT 22:43 CDT
Durée de lumière visible 13h 57m
Longueur du jour
13h 03m
Tomorrow will be 2m 18s shorter.
Lune montante, 21% of the Moon is Illuminated
Aujourd'hui
Lune montante
Sep 2
Premier quartier
Sep 8
Pleine lune
Sep 15
Dernier quartier
Sep 24
Nouveau

Extrêmes aujourd'hui

State Highs State Lows

Community

WunderPhotos

Upload Photos

1,748,482 Photos téléchargées !

Nearby

Épaisseur de neige

Station Depth Altitude
Pas de nouvelles chutes de neige

Activité sismique

Ville Distance Mag. Time & Date
Guthrie, Oklahoma 125 Miles terrestres 3.2 10:39 CDT
2014-08-29
Perry, Oklahoma 99 Miles terrestres 3.0 04:52 CDT
2014-08-29
Perry, Oklahoma 98 Miles terrestres 3.1 22:01 CDT
2014-08-28
Minimum magnitude displayed is 2.5.

Températures des eaux côtières

Lieu Température
Aucun rapport de station

Stations météo à proximité